Time;durP1;ratioP1;P1;durP2;ratioP2;P2;SDS_P1;SDS_P2;PMS_P1;PMS_P2;Temp;Humidity;BMP_temperature;BMP_pressure;BME280_temperature;BME280_humidity;BME280_pressure;Samples;Min_cycle;Max_cycle;Signal;HPM_P1;HPM_P2
2023/12/12 00:00:24;;;;;;;;;;;;;;;;;;5096917;28;19919;-70
2023/12/12 00:02:50;;;;;;;;;;;;;;;;;;5096969;28;19998;-70
2023/12/12 00:05:16;;;;;;;;;;;;;;;;;;5096463;28;20012;-70
2023/12/12 00:07:42;;;;;;;;;;;;;;;;;;5096642;28;19924;-70
2023/12/12 00:10:08;;;;;;;;;;;;;;;;;;5078235;28;19911;-69
2023/12/12 00:12:34;;;;;;;;;;;;;;;;;;5096708;28;19961;-70
2023/12/12 00:15:00;;;;;;;;;;;;;;;;;;5096619;28;19908;-70
2023/12/12 00:17:26;;;;;;;;;;;;;;;;;;5096311;28;19908;-70
2023/12/12 00:19:52;;;;;;;;;;;;;;;;;;5096392;28;19908;-70
2023/12/12 00:22:18;;;;;;;;;;;;;;;;;;5096300;28;20427;-70
2023/12/12 00:24:44;;;;;;;;;;;;;;;;;;5077908;28;20415;-70
2023/12/12 00:27:10;;;;;;;;;;;;;;;;;;5096362;28;19908;-70
2023/12/12 00:29:36;;;;;;;;;;;;;;;;;;5096359;28;19923;-70
2023/12/12 00:32:02;;;;;;;;;;;;;;;;;;5077737;28;19908;-70
2023/12/12 00:34:28;;;;;;;;;;;;;;;;;;5093438;28;20326;-70
2023/12/12 00:36:54;;;;;;;;;;;;;;;;;;5096138;28;19908;-70
2023/12/12 00:39:20;;;;;;;;;;;;;;;;;;5095599;28;20265;-70
2023/12/12 00:41:47;;;;;;;;;;;;;;;;;;5095893;28;20057;-70
2023/12/12 00:44:13;;;;;;;;;;;;;;;;;;5077906;28;19958;-70
2023/12/12 00:46:39;;;;;;;;;;;;;;;;;;5095671;28;19908;-70
2023/12/12 00:49:05;;;;;;;;;;;;;;;;;;5095835;28;19927;-70
2023/12/12 00:51:32;;;;;;;;;;;;;;;;;;5095994;28;19908;-70
2023/12/12 00:53:58;;;;;;;;;;;;;;;;;;5095551;28;19912;-70
2023/12/12 00:56:24;;;;;;;;;;;;;;;;;;5077779;28;19908;-70
2023/12/12 00:58:50;;;;;;;;;;;;;;;;;;5095841;28;19908;-69
2023/12/12 01:01:16;;;;;;;;;;;;;;;;;;5095428;28;20406;-70
2023/12/12 01:03:42;;;;;;;;;;;;;;;;;;5095779;28;19908;-70
2023/12/12 01:06:08;;;;;;;;;;;;;;;;;;5095660;28;19947;-70
2023/12/12 01:08:34;;;;;;;;;;;;;;;;;;5095181;28;19916;-70
2023/12/12 01:11:00;;;;;;;;;;;;;;;;;;5095531;28;19908;-70
2023/12/12 01:13:26;;;;;;;;;;;;;;;;;;5095090;28;20288;-70
2023/12/12 01:15:52;;;;;;;;;;;;;;;;;;5096023;28;19919;-70
2023/12/12 01:18:18;;;;;;;;;;;;;;;;;;5095418;28;19912;-70
2023/12/12 01:20:44;;;;;;;;;;;;;;;;;;5076881;28;20002;-70
2023/12/12 01:23:11;;;;;;;;;;;;;;;;;;5095275;28;19947;-70
2023/12/12 01:25:36;;;;;;;;;;;;;;;;;;5095368;28;19908;-70
2023/12/12 01:28:02;;;;;;;;;;;;;;;;;;5094791;28;19922;-70
2023/12/12 01:30:28;;;;;;;;;;;;;;;;;;5095234;28;19912;-68
2023/12/12 01:32:54;;;;;;;;;;;;;;;;;;5094544;28;19947;-71
2023/12/12 01:35:20;;;;;;;;;;;;;;;;;;5094782;28;19916;-71
2023/12/12 01:37:46;;;;;;;;;;;;;;;;;;5095097;28;19915;-71
2023/12/12 01:40:12;;;;;;;;;;;;;;;;;;5095025;28;19912;-70
2023/12/12 01:42:38;;;;;;;;;;;;;;;;;;5094528;28;19908;-70
2023/12/12 01:45:04;;;;;;;;;;;;;;;;;;5094858;28;19995;-68
2023/12/12 01:47:30;;;;;;;;;;;;;;;;;;5076485;28;20416;-71
2023/12/12 01:49:56;;;;;;;;;;;;;;;;;;5094762;28;19954;-70
2023/12/12 01:52:22;;;;;;;;;;;;;;;;;;5094849;28;19912;-70
2023/12/12 01:54:48;;;;;;;;;;;;;;;;;;5094810;28;20340;-67
2023/12/12 01:57:14;;;;;;;;;;;;;;;;;;5094342;28;19915;-69
2023/12/12 01:59:40;;;;;;;;;;;;;;;;;;5094721;28;19908;-68
2023/12/12 02:02:06;;;;;;;;;;;;;;;;;;5094931;28;20415;-68
2023/12/12 02:04:32;;;;;;;;;;;;;;;;;;5094307;28;20284;-69
2023/12/12 02:06:58;;;;;;;;;;;;;;;;;;5094650;28;19908;-69
2023/12/12 02:09:24;;;;;;;;;;;;;;;;;;5094395;28;19916;-69
2023/12/12 02:11:50;;;;;;;;;;;;;;;;;;5094233;28;19995;-69
2023/12/12 02:14:16;;;;;;;;;;;;;;;;;;5094788;28;19991;-69
2023/12/12 02:16:42;;;;;;;;;;;;;;;;;;5075980;28;19982;-69
2023/12/12 02:19:08;;;;;;;;;;;;;;;;;;5094373;28;19908;-69
2023/12/12 02:21:34;;;;;;;;;;;;;;;;;;5094279;28;19931;-69
2023/12/12 02:24:00;;;;;;;;;;;;;;;;;;5093842;28;19943;-68
2023/12/12 02:26:26;;;;;;;;;;;;;;;;;;5094114;28;19991;-69
2023/12/12 02:28:52;;;;;;;;;;;;;;;;;;5075971;28;20015;-69
2023/12/12 02:31:18;;;;;;;;;;;;;;;;;;5094001;28;19912;-69
2023/12/12 02:33:44;;;;;;;;;;;;;;;;;;5094120;28;19916;-69
2023/12/12 02:36:10;;;;;;;;;;;;;;;;;;5094112;28;20322;-69
2023/12/12 02:38:36;;;;;;;;;;;;;;;;;;5093652;28;19955;-69
2023/12/12 02:41:02;;;;;;;;;;;;;;;;;;5094101;28;20073;-70
2023/12/12 02:43:28;;;;;;;;;;;;;;;;;;5093950;28;19915;-69
2023/12/12 02:45:54;;;;;;;;;;;;;;;;;;5093608;28;20433;-69
2023/12/12 02:48:20;;;;;;;;;;;;;;;;;;5093618;28;19924;-69
2023/12/12 02:50:46;;;;;;;;;;;;;;;;;;5093874;28;19915;-69
2023/12/12 02:53:12;;;;;;;;;;;;;;;;;;5093459;28;19908;-68
2023/12/12 02:55:38;;;;;;;;;;;;;;;;;;5075734;28;19981;-69
2023/12/12 02:58:04;;;;;;;;;;;;;;;;;;5093892;28;19915;-69
2023/12/12 03:00:30;;;;;;;;;;;;;;;;;;5093452;28;19912;-69
2023/12/12 03:02:56;;;;;;;;;;;;;;;;;;5093783;28;19909;-69
2023/12/12 03:05:21;;;;;;;;;;;;;;;;;;5093735;28;19912;-69
2023/12/12 03:07:47;;;;;;;;;;;;;;;;;;5093360;28;19999;-69
2023/12/12 03:10:13;;;;;;;;;;;;;;;;;;5075663;28;19938;-69
2023/12/12 03:12:39;;;;;;;;;;;;;;;;;;5093754;28;19908;-69
2023/12/12 03:15:05;;;;;;;;;;;;;;;;;;5075210;28;19908;-69
2023/12/12 03:17:31;;;;;;;;;;;;;;;;;;5093639;28;20417;-69
2023/12/12 03:19:57;;;;;;;;;;;;;;;;;;5093262;28;19909;-69
2023/12/12 03:22:23;;;;;;;;;;;;;;;;;;5093615;28;19908;-68
2023/12/12 03:24:49;;;;;;;;;;;;;;;;;;5093887;28;20003;-68
2023/12/12 03:27:15;;;;;;;;;;;;;;;;;;5093224;28;19908;-69
2023/12/12 03:29:41;;;;;;;;;;;;;;;;;;5093519;28;19941;-68
2023/12/12 03:32:07;;;;;;;;;;;;;;;;;;5075422;28;20386;-68
2023/12/12 03:34:33;;;;;;;;;;;;;;;;;;5093181;28;20360;-68
2023/12/12 03:36:59;;;;;;;;;;;;;;;;;;5093530;28;20328;-68
2023/12/12 03:39:25;;;;;;;;;;;;;;;;;;5093383;28;19912;-68
2023/12/12 03:41:51;;;;;;;;;;;;;;;;;;5093021;28;20001;-68
2023/12/12 03:44:16;;;;;;;;;;;;;;;;;;5075253;28;19908;-69
2023/12/12 03:46:42;;;;;;;;;;;;;;;;;;5075252;28;19912;-68
2023/12/12 03:49:08;;;;;;;;;;;;;;;;;;5092813;28;19963;-69
2023/12/12 03:51:34;;;;;;;;;;;;;;;;;;5093464;28;20364;-68
2023/12/12 03:54:00;;;;;;;;;;;;;;;;;;5093305;28;20376;-68
2023/12/12 03:56:26;;;;;;;;;;;;;;;;;;5095389;28;20281;-68
2023/12/12 03:58:52;;;;;;;;;;;;;;;;;;5078799;28;19973;-69
2023/12/12 04:01:19;;;;;;;;;;;;;;;;;;5097442;28;20416;-69
2023/12/12 04:03:45;;;;;;;;;;;;;;;;;;5096501;28;19915;-69
2023/12/12 04:06:11;;;;;;;;;;;;;;;;;;5096952;28;20012;-69
2023/12/12 04:08:37;;;;;;;;;;;;;;;;;;5096773;28;19912;-68
2023/12/12 04:11:03;;;;;;;;;;;;;;;;;;5096313;28;19919;-69
2023/12/12 04:13:29;;;;;;;;;;;;;;;;;;5096615;28;19908;-68
2023/12/12 04:15:55;;;;;;;;;;;;;;;;;;5096747;28;19915;-69
2023/12/12 04:18:21;;;;;;;;;;;;;;;;;;5096228;28;19908;-68
2023/12/12 04:20:47;;;;;;;;;;;;;;;;;;5096503;28;19908;-70
2023/12/12 04:23:13;;;;;;;;;;;;;;;;;;5096205;28;19912;-70
2023/12/12 04:25:39;;;;;;;;;;;;;;;;;;5097150;28;19957;-70
2023/12/12 04:28:05;;;;;;;;;;;;;;;;;;5096440;28;19970;-70
2023/12/12 04:30:31;;;;;;;;;;;;;;;;;;5096187;28;20336;-70
2023/12/12 04:32:57;;;;;;;;;;;;;;;;;;5096338;28;19915;-70
2023/12/12 04:35:23;;;;;;;;;;;;;;;;;;5078167;28;19958;-70
2023/12/12 04:37:49;;;;;;;;;;;;;;;;;;5095934;28;19934;-70
2023/12/12 04:40:14;;;;;;;;;;;;;;;;;;5096680;28;19991;-71
2023/12/12 04:42:42;;;;;;;;;;;;;;;;;;5096204;28;19955;-69
2023/12/12 04:45:08;;;;;;;;;;;;;;;;;;5095848;28;19908;-69
2023/12/12 04:47:33;;;;;;;;;;;;;;;;;;5095781;28;20042;-68
2023/12/12 04:49:59;;;;;;;;;;;;;;;;;;5096622;28;19913;-68
2023/12/12 04:52:25;;;;;;;;;;;;;;;;;;5095805;28;19908;-70
2023/12/12 04:54:51;;;;;;;;;;;;;;;;;;5095999;28;19951;-70
2023/12/12 04:57:18;;;;;;;;;;;;;;;;;;5095976;28;20368;-70
2023/12/12 04:59:44;;;;;;;;;;;;;;;;;;5077224;28;19908;-70
2023/12/12 05:02:10;;;;;;;;;;;;;;;;;;5095685;28;19908;-70
2023/12/12 05:04:37;;;;;;;;;;;;;;;;;;5095650;28;20409;-70
2023/12/12 05:07:04;;;;;;;;;;;;;;;;;;5095345;28;19916;-70
2023/12/12 05:09:29;;;;;;;;;;;;;;;;;;5095600;28;20364;-70
2023/12/12 05:11:55;;;;;;;;;;;;;;;;;;5077390;28;19908;-70
2023/12/12 05:14:21;;;;;;;;;;;;;;;;;;5095118;28;19914;-70
2023/12/12 05:16:49;;;;;;;;;;;;;;;;;;5095541;28;19908;-70
2023/12/12 05:19:14;;;;;;;;;;;;;;;;;;5077339;28;20001;-70
2023/12/12 05:21:40;;;;;;;;;;;;;;;;;;5094990;28;20382;-70
2023/12/12 05:24:06;;;;;;;;;;;;;;;;;;5077149;28;19973;-70
2023/12/12 05:26:32;;;;;;;;;;;;;;;;;;5094962;28;19912;-70
2023/12/12 05:28:58;;;;;;;;;;;;;;;;;;5095214;28;19916;-70
2023/12/12 05:31:24;;;;;;;;;;;;;;;;;;5077036;28;19953;-70
2023/12/12 05:33:50;;;;;;;;;;;;;;;;;;5094750;28;20376;-68
2023/12/12 05:36:16;;;;;;;;;;;;;;;;;;5076987;28;19915;-69
2023/12/12 05:38:42;;;;;;;;;;;;;;;;;;5095035;28;19965;-69
2023/12/12 05:41:08;;;;;;;;;;;;;;;;;;5095022;28;20007;-70
2023/12/12 05:43:34;;;;;;;;;;;;;;;;;;5094807;28;19914;-69
2023/12/12 05:46:02;;;;;;;;;;;;;;;;;;5076736;28;19933;-69
2023/12/12 05:48:28;;;;;;;;;;;;;;;;;;5094235;28;19973;-70
2023/12/12 05:50:55;;;;;;;;;;;;;;;;;;5094808;28;19908;-70
2023/12/12 05:53:20;;;;;;;;;;;;;;;;;;5094741;28;20268;-69
2023/12/12 05:55:46;;;;;;;;;;;;;;;;;;5094609;28;20003;-69
2023/12/12 05:58:12;;;;;;;;;;;;;;;;;;5094685;28;20362;-69
2023/12/12 06:00:39;;;;;;;;;;;;;;;;;;5094710;28;19908;-68
2023/12/12 06:03:06;;;;;;;;;;;;;;;;;;5094223;28;19909;-69
2023/12/12 06:05:31;;;;;;;;;;;;;;;;;;5094522;28;19915;-68
2023/12/12 06:07:57;;;;;;;;;;;;;;;;;;5094666;28;19916;-68
2023/12/12 06:10:23;;;;;;;;;;;;;;;;;;5075948;28;19909;-69
2023/12/12 06:12:49;;;;;;;;;;;;;;;;;;5094410;28;19909;-68
2023/12/12 06:15:15;;;;;;;;;;;;;;;;;;5094312;28;19908;-68
2023/12/12 06:17:41;;;;;;;;;;;;;;;;;;5093794;28;19916;-70
2023/12/12 06:20:07;;;;;;;;;;;;;;;;;;5089488;28;19998;-71
2023/12/12 06:22:34;;;;;;;;;;;;;;;;;;5075553;28;19954;-69
2023/12/12 06:25:00;;;;;;;;;;;;;;;;;;5092676;28;20283;-67
2023/12/12 06:27:26;;;;;;;;;;;;;;;;;;5074380;28;19912;-66
2023/12/12 06:29:52;;;;;;;;;;;;;;;;;;5073836;28;20042;-67
2023/12/12 06:32:19;;;;;;;;;;;;;;;;;;5092907;28;19926;-66
2023/12/12 06:34:45;;;;;;;;;;;;;;;;;;5072727;28;19912;-66
2023/12/12 06:37:11;;;;;;;;;;;;;;;;;;5090191;28;19912;-66
2023/12/12 06:39:37;;;;;;;;;;;;;;;;;;5091638;28;19935;-65
2023/12/12 06:42:03;;;;;;;;;;;;;;;;;;5092847;28;20356;-65
2023/12/12 06:44:29;;;;;;;;;;;;;;;;;;5091828;28;19963;-67
2023/12/12 06:46:55;;;;;;;;;;;;;;;;;;5074638;28;20012;-64
2023/12/12 06:49:21;;;;;;;;;;;;;;;;;;5091465;28;20368;-67
2023/12/12 06:51:47;;;;;;;;;;;;;;;;;;5091698;28;19915;-64
2023/12/12 06:54:15;;;;;;;;;;;;;;;;;;5092662;28;20295;-65
2023/12/12 06:56:41;;;;;;;;;;;;;;;;;;5092301;28;19912;-65
2023/12/12 06:59:07;;;;;;;;;;;;;;;;;;5074009;28;19961;-69
2023/12/12 07:01:33;;;;;;;;;;;;;;;;;;5092757;28;19909;-69
2023/12/12 07:03:59;;;;;;;;;;;;;;;;;;5092525;28;19915;-72
2023/12/12 07:06:25;;;;;;;;;;;;;;;;;;5091777;28;19927;-66
2023/12/12 07:08:52;;;;;;;;;;;;;;;;;;5091749;28;20376;-65
2023/12/12 07:11:17;;;;;;;;;;;;;;;;;;5090863;28;19912;-66
2023/12/12 07:13:43;;;;;;;;;;;;;;;;;;5072839;28;19912;-66
2023/12/12 07:16:13;;;;;;;;;;;;;;;;;;5090434;28;19916;-70
2023/12/12 07:18:39;;;;;;;;;;;;;;;;;;5064171;28;19972;-70
2023/12/12 07:21:05;;;;;;;;;;;;;;;;;;5075204;28;19924;-71
2023/12/12 07:23:31;;;;;;;;;;;;;;;;;;5082880;28;19912;-71
2023/12/12 07:25:57;;;;;;;;;;;;;;;;;;5064296;28;19931;-70
2023/12/12 07:28:23;;;;;;;;;;;;;;;;;;5081195;28;20143;-71
2023/12/12 07:30:49;;;;;;;;;;;;;;;;;;5069795;28;20520;-70
2023/12/12 07:33:15;;;;;;;;;;;;;;;;;;5087723;28;19912;-73
2023/12/12 07:35:41;;;;;;;;;;;;;;;;;;5071446;28;19912;-70
2023/12/12 07:38:07;;;;;;;;;;;;;;;;;;5082894;28;20436;-70
2023/12/12 07:40:33;;;;;;;;;;;;;;;;;;5071552;28;20304;-68
2023/12/12 07:42:59;;;;;;;;;;;;;;;;;;5092199;28;19919;-68
2023/12/12 07:45:25;;;;;;;;;;;;;;;;;;5089795;28;19912;-67
2023/12/12 07:47:51;;;;;;;;;;;;;;;;;;5080293;28;19923;-67
2023/12/12 07:50:17;;;;;;;;;;;;;;;;;;5091203;28;20395;-66
2023/12/12 07:52:43;;;;;;;;;;;;;;;;;;5092865;28;20292;-66
2023/12/12 07:55:09;;;;;;;;;;;;;;;;;;5093217;28;20025;-68
2023/12/12 07:57:35;;;;;;;;;;;;;;;;;;5091376;28;20093;-66
2023/12/12 08:00:02;;;;;;;;;;;;;;;;;;5090415;28;20014;-71
2023/12/12 08:02:28;;;;;;;;;;;;;;;;;;5071433;28;20252;-66
2023/12/12 08:04:54;;;;;;;;;;;;;;;;;;5090593;28;19912;-66
2023/12/12 08:07:21;;;;;;;;;;;;;;;;;;5073965;28;19913;-66
2023/12/12 08:09:47;;;;;;;;;;;;;;;;;;5086326;28;19924;-66
2023/12/12 08:12:13;;;;;;;;;;;;;;;;;;5091556;28;19966;-66
2023/12/12 08:14:39;;;;;;;;;;;;;;;;;;5092342;28;19951;-67
2023/12/12 08:17:05;;;;;;;;;;;;;;;;;;5083837;28;19912;-67
2023/12/12 08:19:31;;;;;;;;;;;;;;;;;;5085145;28;19916;-67
2023/12/12 08:21:58;;;;;;;;;;;;;;;;;;5091582;28;20364;-67
2023/12/12 08:24:25;;;;;;;;;;;;;;;;;;5092100;28;20453;-68
2023/12/12 08:26:50;;;;;;;;;;;;;;;;;;5074336;28;19919;-67
2023/12/12 08:29:16;;;;;;;;;;;;;;;;;;5091579;28;20010;-68
2023/12/12 08:31:42;;;;;;;;;;;;;;;;;;5090977;28;20021;-67
2023/12/12 08:34:08;;;;;;;;;;;;;;;;;;5088492;28;19953;-65
2023/12/12 08:36:34;;;;;;;;;;;;;;;;;;5074086;28;19908;-65
2023/12/12 08:39:00;;;;;;;;;;;;;;;;;;5093173;28;19923;-67
2023/12/12 08:41:28;;;;;;;;;;;;;;;;;;5091077;28;20038;-66
2023/12/12 08:43:54;;;;;;;;;;;;;;;;;;5083780;28;19958;-66
2023/12/12 08:46:22;;;;;;;;;;;;;;;;;;5080899;28;20261;-67
2023/12/12 08:48:48;;;;;;;;;;;;;;;;;;5089921;28;19970;-67
2023/12/12 08:51:14;;;;;;;;;;;;;;;;;;5091316;28;20372;-67
2023/12/12 08:53:40;;;;;;;;;;;;;;;;;;5091236;28;19912;-66
2023/12/12 08:56:06;;;;;;;;;;;;;;;;;;5072652;28;19912;-66
2023/12/12 08:58:32;;;;;;;;;;;;;;;;;;5090626;28;19924;-66
2023/12/12 09:00:59;;;;;;;;;;;;;;;;;;5071802;28;19926;-67
2023/12/12 09:03:25;;;;;;;;;;;;;;;;;;5101808;28;19908;-66
2023/12/12 09:05:50;;;;;;;;;;;;;;;;;;5094406;28;19912;-67
2023/12/12 09:08:17;;;;;;;;;;;;;;;;;;5090753;28;19916;-66
2023/12/12 09:10:43;;;;;;;;;;;;;;;;;;5092481;28;19916;-68
2023/12/12 09:13:09;;;;;;;;;;;;;;;;;;5091894;28;20261;-67
2023/12/12 09:15:35;;;;;;;;;;;;;;;;;;5091310;28;20399;-67
2023/12/12 09:18:01;;;;;;;;;;;;;;;;;;5089050;28;19959;-65
2023/12/12 09:20:27;;;;;;;;;;;;;;;;;;5090205;28;19941;-66
2023/12/12 09:22:53;;;;;;;;;;;;;;;;;;5090470;28;20356;-67
2023/12/12 09:25:20;;;;;;;;;;;;;;;;;;5091170;28;19965;-68
2023/12/12 09:27:46;;;;;;;;;;;;;;;;;;5092535;28;19943;-67
2023/12/12 09:30:12;;;;;;;;;;;;;;;;;;5092078;28;19966;-67
2023/12/12 09:32:37;;;;;;;;;;;;;;;;;;5092120;28;19912;-66
2023/12/12 09:35:04;;;;;;;;;;;;;;;;;;5091920;28;20348;-65
2023/12/12 09:37:29;;;;;;;;;;;;;;;;;;5086976;28;20376;-67
2023/12/12 09:39:55;;;;;;;;;;;;;;;;;;5084313;28;19965;-67
2023/12/12 09:42:21;;;;;;;;;;;;;;;;;;5083964;28;19919;-65
2023/12/12 09:44:47;;;;;;;;;;;;;;;;;;5091379;28;19916;-68
2023/12/12 09:47:13;;;;;;;;;;;;;;;;;;5088554;28;19912;-65
2023/12/12 09:49:39;;;;;;;;;;;;;;;;;;5085184;28;19943;-67
2023/12/12 09:52:05;;;;;;;;;;;;;;;;;;5088817;28;20364;-66
2023/12/12 09:54:31;;;;;;;;;;;;;;;;;;5083622;28;20178;-68
2023/12/12 09:56:57;;;;;;;;;;;;;;;;;;5075361;28;20011;-68
2023/12/12 09:59:23;;;;;;;;;;;;;;;;;;5089500;28;20448;-68
2023/12/12 10:01:49;;;;;;;;;;;;;;;;;;5085469;28;19939;-68
2023/12/12 10:04:15;;;;;;;;;;;;;;;;;;5081127;28;19908;-67
2023/12/12 10:06:42;;;;;;;;;;;;;;;;;;5088970;28;19912;-68
2023/12/12 10:09:08;;;;;;;;;;;;;;;;;;5089739;28;19920;-67
2023/12/12 10:11:34;;;;;;;;;;;;;;;;;;5084315;28;19919;-68
2023/12/12 10:14:00;;;;;;;;;;;;;;;;;;5083933;28;19918;-68
2023/12/12 10:16:26;;;;;;;;;;;;;;;;;;5066500;28;19920;-70
2023/12/12 10:18:52;;;;;;;;;;;;;;;;;;5089285;28;20029;-69
2023/12/12 10:21:18;;;;;;;;;;;;;;;;;;5089583;28;19908;-68
2023/12/12 10:23:45;;;;;;;;;;;;;;;;;;5089169;28;20328;-68
2023/12/12 10:26:11;;;;;;;;;;;;;;;;;;5089416;28;19955;-68
2023/12/12 10:28:37;;;;;;;;;;;;;;;;;;5079513;28;19952;-68
2023/12/12 10:31:03;;;;;;;;;;;;;;;;;;5082762;28;19934;-68
2023/12/12 10:33:29;;;;;;;;;;;;;;;;;;5080873;28;20398;-68
2023/12/12 10:35:55;;;;;;;;;;;;;;;;;;5088336;28;19938;-68
2023/12/12 10:38:20;;;;;;;;;;;;;;;;;;5090606;28;19920;-69
2023/12/12 10:40:47;;;;;;;;;;;;;;;;;;5089826;28;19931;-69
2023/12/12 10:43:13;;;;;;;;;;;;;;;;;;5092185;28;19916;-69
2023/12/12 10:47:38;;;;;;;;;;;;;;;;;;5087753;27;19921;-67
2023/12/12 10:50:48;;;;;;;;;;;;;;;;;;5089695;27;19917;-67
2023/12/12 10:53:15;;;;;;;;;;;;;;;;;;5090013;28;20372;-68
2023/12/12 10:55:41;;;;;;;;;;;;;;;;;;5089404;28;19913;-68
2023/12/12 10:58:07;;;;;;;;;;;;;;;;;;5089385;28;20391;-68
2023/12/12 11:00:53;;;;;;;;;;;;;;;;;;5149162;27;19911;-68
2023/12/12 11:09:25;;;;;;;;;;;;;;;;;;5111535;27;20402;-67
2023/12/12 11:11:50;;;;;;;;;;;;;;;;;;5111600;28;19919;-67
2023/12/12 11:16:32;;;;;;;;;;;;;;;;;;5099438;27;19920;-65
2023/12/12 11:28:39;;;;;;;;;;;;;;;;;;5160164;27;19919;-68
2023/12/12 11:31:05;;;;;;;;;;;;;;;;;;5155395;27;19921;-69
2023/12/12 11:34:22;;;;;;;;;;;;;;;;;;5087966;27;19920;-69
2023/12/12 11:43:51;;;;;;;;;;;;;;;;;;5105795;27;20137;-68
2023/12/12 11:46:17;;;;;;;;;;;;;;;;;;5105587;28;19920;-68
2023/12/12 11:48:43;;;;;;;;;;;;;;;;;;5106757;28;19961;-64
2023/12/12 11:52:39;;;;;;;;;;;;;;;;;;5108243;27;19922;-66
2023/12/12 11:55:05;;;;;;;;;;;;;;;;;;5107938;28;19987;-65
2023/12/12 11:57:31;;;;;;;;;;;;;;;;;;5108480;28;19953;-65
2023/12/12 11:59:57;;;;;;;;;;;;;;;;;;5109155;28;19908;-66
2023/12/12 12:04:10;;;;;;;;;;;;;;;;;;5088384;27;19923;-65
2023/12/12 12:11:38;;;;;;;;;;;;;;;;;;5087005;28;19917;-65
2023/12/12 12:17:10;;;;;;;;;;;;;;;;;;5143261;27;19922;-65
2023/12/12 12:19:37;;;;;;;;;;;;;;;;;;5109877;28;19998;-65
2023/12/12 12:25:29;;;;;;;;;;;;;;;;;;5090243;27;19916;-65
2023/12/12 12:30:33;;;;;;;;;;;;;;;;;;5087938;27;19916;-66
2023/12/12 12:32:59;;;;;;;;;;;;;;;;;;5089426;28;19919;-65
2023/12/12 12:35:25;;;;;;;;;;;;;;;;;;5090828;28;20361;-65
2023/12/12 12:41:58;;;;;;;;;;;;;;;;;;5109773;27;19916;-65
2023/12/12 12:46:53;;;;;;;;;;;;;;;;;;5107050;27;20229;-66
2023/12/12 12:49:19;;;;;;;;;;;;;;;;;;5110884;28;19918;-66
2023/12/12 12:51:47;;;;;;;;;;;;;;;;;;5110881;28;19914;-67
2023/12/12 12:56:18;;;;;;;;;;;;;;;;;;5090743;28;19917;-66
2023/12/12 12:58:44;;;;;;;;;;;;;;;;;;5088836;28;19919;-68
2023/12/12 13:01:10;;;;;;;;;;;;;;;;;;5090473;28;19913;-66
2023/12/12 13:06:02;;;;;;;;;;;;;;;;;;5070176;28;19919;-66
2023/12/12 13:10:10;;;;;;;;;;;;;;;;;;5109081;27;19923;-65
2023/12/12 13:14:21;;;;;;;;;;;;;;;;;;5088468;27;19919;-65
2023/12/12 13:16:47;;;;;;;;;;;;;;;;;;5089661;28;19919;-66
2023/12/12 13:19:13;;;;;;;;;;;;;;;;;;5089498;28;20412;-65
2023/12/12 13:21:39;;;;;;;;;;;;;;;;;;5089856;28;20368;-66
2023/12/12 13:25:16;;;;;;;;;;;;;;;;;;5089969;27;19917;-66
2023/12/12 13:27:42;;;;;;;;;;;;;;;;;;5089550;28;19973;-66
2023/12/12 13:35:07;;;;;;;;;;;;;;;;;;5109788;27;19920;-66
2023/12/12 13:37:33;;;;;;;;;;;;;;;;;;5110002;28;19912;-66
2023/12/12 13:40:32;;;;;;;;;;;;;;;;;;5089810;27;19927;-66
2023/12/12 13:42:58;;;;;;;;;;;;;;;;;;5089394;28;19920;-66
2023/12/12 13:47:45;;;;;;;;;;;;;;;;;;5087702;27;19913;-65
2023/12/12 13:50:11;;;;;;;;;;;;;;;;;;5086276;28;19938;-66
2023/12/12 13:52:37;;;;;;;;;;;;;;;;;;5088433;28;19912;-65
2023/12/12 13:55:03;;;;;;;;;;;;;;;;;;5088445;28;20409;-66
2023/12/12 13:57:29;;;;;;;;;;;;;;;;;;5087570;28;19912;-65
2023/12/12 14:00:15;;;;;;;;;;;;;;;;;;5108988;27;19922;-66
2023/12/12 14:03:21;;;;;;;;;;;;;;;;;;5088752;27;20299;-68
2023/12/12 14:06:32;;;;;;;;;;;;;;;;;;5087928;27;19912;-68
2023/12/12 14:08:57;;;;;;;;;;;;;;;;;;5090047;28;19912;-68
2023/12/12 14:11:24;;;;;;;;;;;;;;;;;;5090016;28;20294;-68
2023/12/12 14:20:42;;;;;;;;;;;;;;;;;;5089660;28;19916;-69
2023/12/12 14:23:09;;;;;;;;;;;;;;;;;;5088012;28;19912;-68
2023/12/12 14:30:28;;;;;;;;;;;;;;;;;;5090957;28;19927;-68
2023/12/12 14:32:54;;;;;;;;;;;;;;;;;;5090928;28;19912;-68
2023/12/12 14:35:20;;;;;;;;;;;;;;;;;;5090571;28;19915;-68
2023/12/12 14:37:46;;;;;;;;;;;;;;;;;;5089762;28;20288;-68
2023/12/12 14:40:12;;;;;;;;;;;;;;;;;;5090919;28;19912;-68
2023/12/12 14:42:38;;;;;;;;;;;;;;;;;;5090406;28;20356;-68
2023/12/12 14:45:04;;;;;;;;;;;;;;;;;;5090696;28;20391;-68
2023/12/12 14:47:30;;;;;;;;;;;;;;;;;;5090308;28;20399;-68
2023/12/12 14:49:56;;;;;;;;;;;;;;;;;;5090436;28;19920;-68
2023/12/12 14:52:22;;;;;;;;;;;;;;;;;;5090189;28;20335;-68
2023/12/12 14:54:48;;;;;;;;;;;;;;;;;;5090308;28;20280;-68
2023/12/12 14:57:14;;;;;;;;;;;;;;;;;;5089941;28;19930;-68
2023/12/12 14:59:40;;;;;;;;;;;;;;;;;;5090216;28;19978;-68
2023/12/12 15:02:06;;;;;;;;;;;;;;;;;;5090267;28;19997;-68
2023/12/12 15:04:32;;;;;;;;;;;;;;;;;;5088457;28;20360;-68
2023/12/12 15:06:58;;;;;;;;;;;;;;;;;;5090147;28;19954;-68
2023/12/12 15:09:24;;;;;;;;;;;;;;;;;;5088463;28;20338;-71
2023/12/12 15:11:50;;;;;;;;;;;;;;;;;;5088494;28;19939;-69
2023/12/12 15:14:18;;;;;;;;;;;;;;;;;;5089931;28;19909;-68
2023/12/12 15:16:44;;;;;;;;;;;;;;;;;;5090202;28;19944;-69
2023/12/12 15:19:10;;;;;;;;;;;;;;;;;;5088113;28;19951;-69
2023/12/12 15:21:36;;;;;;;;;;;;;;;;;;5090207;28;19912;-69
2023/12/12 15:24:02;;;;;;;;;;;;;;;;;;5088578;28;20430;-69
2023/12/12 15:26:28;;;;;;;;;;;;;;;;;;5089512;28;19939;-69
2023/12/12 15:28:55;;;;;;;;;;;;;;;;;;5089430;28;19924;-69
2023/12/12 15:31:21;;;;;;;;;;;;;;;;;;5089296;28;19909;-69
2023/12/12 15:33:47;;;;;;;;;;;;;;;;;;5088432;28;19917;-69
2023/12/12 15:36:13;;;;;;;;;;;;;;;;;;5088407;28;19961;-69
2023/12/12 15:38:39;;;;;;;;;;;;;;;;;;5089297;28;20317;-69
2023/12/12 15:41:05;;;;;;;;;;;;;;;;;;5079746;28;19926;-69
2023/12/12 15:43:31;;;;;;;;;;;;;;;;;;5075889;28;19915;-68
2023/12/12 15:45:57;;;;;;;;;;;;;;;;;;5075461;28;19998;-68
2023/12/12 15:48:23;;;;;;;;;;;;;;;;;;5075953;28;19920;-69
2023/12/12 15:50:49;;;;;;;;;;;;;;;;;;5076130;28;19912;-69
2023/12/12 15:53:15;;;;;;;;;;;;;;;;;;5075754;28;19917;-69
2023/12/12 15:55:41;;;;;;;;;;;;;;;;;;5074925;28;20387;-70
2023/12/12 15:58:07;;;;;;;;;;;;;;;;;;5076160;28;20376;-69
2023/12/12 16:00:33;;;;;;;;;;;;;;;;;;5075762;28;19954;-68
2023/12/12 16:02:59;;;;;;;;;;;;;;;;;;5075976;28;19952;-69
2023/12/12 16:05:25;;;;;;;;;;;;;;;;;;5074727;28;19970;-68
2023/12/12 16:07:51;;;;;;;;;;;;;;;;;;5075742;28;19908;-69
2023/12/12 16:10:17;;;;;;;;;;;;;;;;;;5075541;28;19916;-69
2023/12/12 16:12:43;;;;;;;;;;;;;;;;;;5075822;28;19931;-69
2023/12/12 16:15:10;;;;;;;;;;;;;;;;;;5074609;28;20385;-69
2023/12/12 16:17:36;;;;;;;;;;;;;;;;;;5075842;28;19915;-69
2023/12/12 16:20:05;;;;;;;;;;;;;;;;;;5075687;28;19908;-69
2023/12/12 16:22:31;;;;;;;;;;;;;;;;;;5075206;28;19908;-69
2023/12/12 16:24:57;;;;;;;;;;;;;;;;;;5075489;28;19909;-69
2023/12/12 16:27:23;;;;;;;;;;;;;;;;;;5075576;28;19913;-69
2023/12/12 16:29:49;;;;;;;;;;;;;;;;;;5075029;28;20345;-70
2023/12/12 16:32:16;;;;;;;;;;;;;;;;;;5075417;28;20029;-68
2023/12/12 16:34:42;;;;;;;;;;;;;;;;;;5075089;28;20271;-69
2023/12/12 16:37:08;;;;;;;;;;;;;;;;;;5075271;28;20000;-69
2023/12/12 16:39:34;;;;;;;;;;;;;;;;;;5074120;28;19918;-69
2023/12/12 16:42:04;;;;;;;;;;;;;;;;;;5074873;28;19935;-69
2023/12/12 16:44:30;;;;;;;;;;;;;;;;;;5073891;28;19916;-69
2023/12/12 16:46:56;;;;;;;;;;;;;;;;;;5074974;28;20361;-69
2023/12/12 16:49:22;;;;;;;;;;;;;;;;;;5073399;28;20346;-68
2023/12/12 16:51:48;;;;;;;;;;;;;;;;;;5074237;28;19954;-68
2023/12/12 16:54:13;;;;;;;;;;;;;;;;;;5075152;28;19931;-68
2023/12/12 16:56:39;;;;;;;;;;;;;;;;;;5074619;28;20007;-68
2023/12/12 16:59:05;;;;;;;;;;;;;;;;;;5073558;28;19912;-68
2023/12/12 17:01:31;;;;;;;;;;;;;;;;;;5074832;28;19916;-68
2023/12/12 17:03:57;;;;;;;;;;;;;;;;;;5073075;28;19909;-70
2023/12/12 17:06:25;;;;;;;;;;;;;;;;;;5074574;28;20004;-70
2023/12/12 17:08:51;;;;;;;;;;;;;;;;;;5073315;28;19970;-70
2023/12/12 17:11:16;;;;;;;;;;;;;;;;;;5073077;28;19908;-70
2023/12/12 17:13:42;;;;;;;;;;;;;;;;;;5074806;28;19909;-70
2023/12/12 17:16:08;;;;;;;;;;;;;;;;;;5073255;28;19943;-70
2023/12/12 17:18:34;;;;;;;;;;;;;;;;;;5065357;28;19917;-70
2023/12/12 17:21:05;;;;;;;;;;;;;;;;;;5072777;28;19913;-70
2023/12/12 17:23:31;;;;;;;;;;;;;;;;;;5074682;28;19908;-70
2023/12/12 17:25:57;;;;;;;;;;;;;;;;;;5074032;28;19943;-70
2023/12/12 17:28:23;;;;;;;;;;;;;;;;;;5071047;28;20231;-68
2023/12/12 17:30:49;;;;;;;;;;;;;;;;;;5073525;28;19908;-68
2023/12/12 17:33:15;;;;;;;;;;;;;;;;;;5071713;28;19912;-69
2023/12/12 17:35:41;;;;;;;;;;;;;;;;;;5073266;28;19909;-70
2023/12/12 17:38:07;;;;;;;;;;;;;;;;;;5072989;28;19909;-70
2023/12/12 17:40:33;;;;;;;;;;;;;;;;;;5073312;28;19914;-68
2023/12/12 17:43:00;;;;;;;;;;;;;;;;;;5073494;28;19912;-69
2023/12/12 17:45:26;;;;;;;;;;;;;;;;;;5072011;28;19909;-68
2023/12/12 17:47:52;;;;;;;;;;;;;;;;;;5071531;28;19939;-69
2023/12/12 17:50:18;;;;;;;;;;;;;;;;;;5073694;28;19920;-69
2023/12/12 17:52:44;;;;;;;;;;;;;;;;;;5073263;28;19923;-67
2023/12/12 17:55:12;;;;;;;;;;;;;;;;;;5073536;28;19916;-71
2023/12/12 17:57:38;;;;;;;;;;;;;;;;;;5073556;28;20368;-67
2023/12/12 18:00:04;;;;;;;;;;;;;;;;;;5073141;28;19949;-68